Time;durP1;ratioP1;P1;durP2;ratioP2;P2;SDS_P1;SDS_P2;PMS_P1;PMS_P2;Temp;Humidity;BMP_temperature;BMP_pressure;BME280_temperature;BME280_humidity;BME280_pressure;Samples;Min_cycle;Max_cycle;Signal;HPM_P1;HPM_P2
2022/08/23 00:01:57;;;;;;;4.78;2.88;;;17.00;99.90;;;;;;5015575;28;20054;-70
2022/08/23 00:04:27;;;;;;;4.25;3.00;;;16.90;99.90;;;;;;5014528;28;20494;-70
2022/08/23 00:06:54;;;;;;;3.47;2.60;;;16.90;99.90;;;;;;5014212;28;20049;-70
2022/08/23 00:09:22;;;;;;;5.25;4.20;;;16.80;99.90;;;;;;5015088;28;20500;-70
2022/08/23 00:11:51;;;;;;;4.97;3.08;;;16.70;99.90;;;;;;5014507;28;20052;-70
2022/08/23 00:14:21;;;;;;;4.40;3.30;;;16.60;99.90;;;;;;5015259;28;20249;-70
2022/08/23 00:16:47;;;;;;;3.13;2.80;;;16.60;99.90;;;;;;5015294;28;20068;-70
2022/08/23 00:19:15;;;;;;;3.53;2.72;;;16.50;99.90;;;;;;5014457;28;20041;-70
2022/08/23 00:21:42;;;;;;;3.72;2.85;;;16.50;99.90;;;;;;5014409;28;20104;-69
2022/08/23 00:24:10;;;;;;;4.07;3.22;;;16.50;99.90;;;;;;5014747;28;20096;-70
2022/08/23 00:27:08;;;;;;;4.75;3.80;;;16.50;99.90;;;;;;5014103;28;20046;-70
2022/08/23 00:29:41;;;;;;;3.75;3.05;;;16.50;99.90;;;;;;4998280;28;20050;-70
2022/08/23 00:32:10;;;;;;;2.92;2.50;;;16.40;99.90;;;;;;5014137;28;20057;-70
2022/08/23 00:34:36;;;;;;;6.70;4.40;;;16.30;99.90;;;;;;5014089;28;20088;-69
2022/08/23 00:37:03;;;;;;;5.30;4.15;;;16.30;99.90;;;;;;5014640;28;20050;-70
2022/08/23 00:39:29;;;;;;;4.50;3.88;;;16.20;99.90;;;;;;5012818;28;20050;-70
2022/08/23 00:41:58;;;;;;;6.18;4.80;;;16.20;99.90;;;;;;5014520;28;20100;-70
2022/08/23 00:50:17;;;;;;;4.33;3.43;;;16.10;99.90;;;;;;5013953;28;20061;-70
2022/08/23 00:52:50;;;;;;;3.20;2.85;;;16.00;99.90;;;;;;5013808;28;20050;-71
2022/08/23 00:55:18;;;;;;;2.90;2.60;;;16.00;99.90;;;;;;5013879;28;20046;-70
2022/08/23 00:57:44;;;;;;;3.22;2.92;;;15.90;99.90;;;;;;5014258;28;20050;-70
2022/08/23 01:00:11;;;;;;;4.80;3.47;;;15.90;99.90;;;;;;5013750;28;20064;-70
2022/08/23 01:02:37;;;;;;;5.50;4.22;;;16.00;99.90;;;;;;5012645;28;20061;-70
2022/08/23 01:05:05;;;;;;;6.13;4.18;;;16.10;99.90;;;;;;5013524;28;20038;-70
2022/08/23 01:07:45;;;;;;;3.83;3.25;;;16.20;99.90;;;;;;5013661;28;20050;-70
2022/08/23 01:10:39;;;;;;;6.10;4.47;;;16.30;99.90;;;;;;5016209;28;20046;-70
2022/08/23 01:13:10;;;;;;;6.32;4.78;;;16.40;99.90;;;;;;5013346;28;20058;-70
2022/08/23 01:15:44;;;;;;;7.43;5.05;;;16.40;99.90;;;;;;5014552;28;20370;-70
2022/08/23 01:18:14;;;;;;;7.45;5.38;;;16.40;99.90;;;;;;5013019;28;20057;-70
2022/08/23 01:21:12;;;;;;;7.07;5.18;;;16.40;99.90;;;;;;5013487;28;20040;-70
2022/08/23 01:23:57;;;;;;;4.30;3.85;;;16.50;99.90;;;;;;5003244;28;20064;-70
2022/08/23 01:26:24;;;;;;;4.80;3.42;;;16.40;99.90;;;;;;5013948;28;20050;-70
2022/08/23 01:28:54;;;;;;;5.38;3.78;;;16.30;99.90;;;;;;5013936;28;20383;-70
2022/08/23 01:31:22;;;;;;;5.47;4.10;;;16.30;99.90;;;;;;5012163;28;20086;-70
2022/08/23 01:33:55;;;;;;;6.07;4.50;;;16.20;99.90;;;;;;5014144;28;20053;-70
2022/08/23 01:36:22;;;;;;;5.25;4.50;;;16.30;99.90;;;;;;5013294;28;20042;-70
2022/08/23 01:38:47;;;;;;;5.85;4.60;;;16.30;99.90;;;;;;5013294;28;20042;-70
2022/08/23 01:41:13;;;;;;;5.15;4.15;;;16.30;99.90;;;;;;5013386;28;20101;-70
2022/08/23 01:43:39;;;;;;;5.80;4.78;;;16.30;99.90;;;;;;5013440;28;20046;-70
2022/08/23 01:46:24;;;;;;;5.03;4.30;;;16.30;99.90;;;;;;5013133;28;20384;-70
2022/08/23 01:48:53;;;;;;;3.90;3.08;;;16.40;99.90;;;;;;5013246;28;20479;-70
2022/08/23 01:51:20;;;;;;;3.53;3.15;;;16.30;99.90;;;;;;5013050;28;20057;-69
2022/08/23 01:53:46;;;;;;;3.40;2.70;;;16.30;99.90;;;;;;5013408;28;20046;-70
2022/08/23 01:56:13;;;;;;;3.70;3.20;;;16.30;99.90;;;;;;5011962;28;20049;-70
2022/08/23 01:58:39;;;;;;;3.90;3.50;;;16.20;99.90;;;;;;5012092;28;20050;-70
2022/08/23 02:01:05;;;;;;;5.03;3.40;;;16.10;99.90;;;;;;5013621;28;20136;-70
2022/08/23 02:03:32;;;;;;;6.53;5.85;;;16.00;99.90;;;;;;5012966;28;20046;-69
2022/08/23 02:05:58;;;;;;;10.80;5.95;;;16.00;99.90;;;;;;5013066;28;20085;-70
2022/08/23 02:11:15;;;;;;;8.98;6.45;;;15.80;99.90;;;;;;5012822;28;20147;-69
2022/08/23 02:13:42;;;;;;;6.50;5.88;;;15.70;99.90;;;;;;5013827;28;20058;-70
2022/08/23 02:16:08;;;;;;;8.20;3.92;;;15.60;99.90;;;;;;5013028;28;20060;-70
2022/08/23 02:18:34;;;;;;;3.63;3.13;;;15.60;99.90;;;;;;5013015;28;20054;-69
2022/08/23 02:21:00;;;;;;;5.30;4.18;;;15.50;99.90;;;;;;5013499;28;20096;-70
2022/08/23 02:23:27;;;;;;;4.13;3.65;;;15.40;99.90;;;;;;5013111;28;20052;-66
2022/08/23 02:25:53;;;;;;;3.85;3.45;;;15.40;99.90;;;;;;5012803;28;20104;-68
2022/08/23 02:28:19;;;;;;;3.67;3.38;;;15.30;99.90;;;;;;5012818;28;20056;-66
2022/08/23 02:30:45;;;;;;;4.00;3.60;;;15.40;99.90;;;;;;5016211;28;20141;-67
2022/08/23 02:33:12;;;;;;;3.88;3.47;;;15.30;99.90;;;;;;5016131;28;20487;-67
2022/08/23 02:35:38;;;;;;;4.70;4.03;;;15.30;99.90;;;;;;5016068;28;20495;-67
2022/08/23 02:38:10;;;;;;;4.88;4.38;;;15.40;99.90;;;;;;5015237;28;20061;-67
2022/08/23 02:40:36;;;;;;;5.22;4.72;;;15.40;99.90;;;;;;5017049;28;20049;-67
2022/08/23 02:43:03;;;;;;;6.72;5.18;;;15.40;99.90;;;;;;5016565;28;20501;-67
2022/08/23 02:45:29;;;;;;;5.05;4.20;;;15.40;99.90;;;;;;5016085;28;20092;-67
2022/08/23 02:47:55;;;;;;;6.35;3.70;;;15.40;99.90;;;;;;5015186;28;20140;-67
2022/08/23 02:50:22;;;;;;;3.17;2.42;;;15.40;99.90;;;;;;5016093;28;20475;-67
2022/08/23 02:52:47;;;;;;;5.30;3.08;;;15.40;99.90;;;;;;5016145;28;20049;-67
2022/08/23 02:55:13;;;;;;;4.13;3.40;;;15.40;99.90;;;;;;5015050;28;20188;-67
2022/08/23 02:57:39;;;;;;;4.18;3.17;;;15.40;99.90;;;;;;5015946;28;20038;-67
2022/08/23 03:00:09;;;;;;;6.22;4.18;;;15.40;99.90;;;;;;5016431;28;20042;-67
2022/08/23 03:02:36;;;;;;;13.65;4.63;;;15.50;99.90;;;;;;5014743;28;20471;-67
2022/08/23 03:05:06;;;;;;;5.03;4.13;;;15.50;99.90;;;;;;5016277;28;20093;-68
2022/08/23 03:07:31;;;;;;;5.68;4.80;;;15.40;99.90;;;;;;5015596;28;20479;-66
2022/08/23 03:09:57;;;;;;;8.38;4.68;;;15.50;99.90;;;;;;5015712;28;20046;-67
2022/08/23 03:12:23;;;;;;;6.00;4.28;;;15.50;99.90;;;;;;5014686;28;20050;-67
2022/08/23 03:14:50;;;;;;;15.63;3.20;;;15.40;99.90;;;;;;5015150;28;20494;-67
2022/08/23 03:17:17;;;;;;;13.38;3.28;;;15.30;99.90;;;;;;5015632;28;20061;-67
2022/08/23 03:19:42;;;;;;;12.93;3.03;;;15.20;99.90;;;;;;5015458;28;20050;-67
2022/08/23 03:22:08;;;;;;;2.95;2.20;;;15.10;99.90;;;;;;5015385;28;20104;-67
2022/08/23 03:24:35;;;;;;;2.92;2.25;;;14.90;99.90;;;;;;5015934;28;20132;-67
2022/08/23 03:27:01;;;;;;;2.78;2.20;;;14.90;99.90;;;;;;5015417;28;20081;-67
2022/08/23 03:29:27;;;;;;;2.65;2.33;;;14.90;99.90;;;;;;5014406;28;20118;-67
2022/08/23 03:31:53;;;;;;;2.92;2.08;;;14.90;99.90;;;;;;5015661;28;20052;-67
2022/08/23 03:34:19;;;;;;;2.30;1.90;;;15.00;99.90;;;;;;5015336;28;20386;-67
2022/08/23 03:36:45;;;;;;;2.40;2.00;;;14.90;99.90;;;;;;5014071;28;20061;-68
2022/08/23 03:39:11;;;;;;;3.00;2.50;;;15.00;99.90;;;;;;5015213;28;20081;-68
2022/08/23 03:41:36;;;;;;;2.58;2.15;;;15.00;99.90;;;;;;5014491;28;20147;-67
2022/08/23 03:44:03;;;;;;;2.40;2.00;;;14.90;99.90;;;;;;5015113;28;20046;-65
2022/08/23 03:46:29;;;;;;;4.68;3.10;;;14.90;99.90;;;;;;5014810;28;20491;-65
2022/08/23 03:49:00;;;;;;;9.60;3.88;;;14.90;99.90;;;;;;5015498;28;20096;-65
2022/08/23 03:51:28;;;;;;;4.03;2.83;;;14.90;99.90;;;;;;5015003;28;20042;-65
2022/08/23 03:53:53;;;;;;;2.80;2.38;;;15.00;99.90;;;;;;5015162;28;20124;-65
2022/08/23 03:56:30;;;;;;;3.20;2.70;;;15.00;99.90;;;;;;4997564;28;20559;-65
2022/08/23 03:58:56;;;;;;;;;;;15.00;99.90;;;;;;5014637;28;20382;-65
2022/08/23 04:01:22;;;;;;;5.07;3.05;;;14.90;99.90;;;;;;5014804;28;19921;-66
2022/08/23 04:03:48;;;;;;;3.70;3.00;;;14.90;99.90;;;;;;5015017;28;20107;-68
2022/08/23 04:06:15;;;;;;;2.80;2.25;;;14.80;99.90;;;;;;5014663;28;20046;-67
2022/08/23 04:08:42;;;;;;;2.78;2.13;;;14.80;99.90;;;;;;5014590;28;20103;-67
2022/08/23 04:11:08;;;;;;;3.03;2.28;;;14.80;99.90;;;;;;5014505;28;20057;-67
2022/08/23 04:13:35;;;;;;;4.03;2.50;;;14.80;99.90;;;;;;5014373;28;20386;-67
2022/08/23 04:16:02;;;;;;;8.15;2.63;;;14.70;99.90;;;;;;5014598;28;20059;-67
2022/08/23 04:18:30;;;;;;;3.25;2.20;;;14.70;99.90;;;;;;5013415;28;20054;-67
2022/08/23 04:20:58;;;;;;;6.60;2.45;;;14.60;99.90;;;;;;5014362;28;20049;-67
2022/08/23 04:23:26;;;;;;;2.95;2.38;;;14.50;99.90;;;;;;5014399;28;20110;-67
2022/08/23 04:25:53;;;;;;;2.83;2.13;;;14.50;99.90;;;;;;5014335;28;20050;-67
2022/08/23 04:28:20;;;;;;;3.17;2.13;;;14.50;99.90;;;;;;5014586;28;20053;-67
2022/08/23 04:30:46;;;;;;;2.30;1.95;;;14.50;99.90;;;;;;5013731;28;20046;-67
2022/08/23 04:33:12;;;;;;;2.47;2.08;;;14.50;99.90;;;;;;5013187;28;20424;-69
2022/08/23 04:35:40;;;;;;;2.20;1.98;;;14.50;99.90;;;;;;5013348;28;20135;-67
2022/08/23 04:38:06;;;;;;;2.72;2.20;;;14.50;99.90;;;;;;5014108;28;20049;-67
2022/08/23 04:43:16;;;;;;;8.65;2.78;;;14.40;99.90;;;;;;5014083;28;20514;-67
2022/08/23 04:45:42;;;;;;;7.43;2.90;;;14.40;99.90;;;;;;5014544;28;20042;-67
2022/08/23 04:48:08;;;;;;;5.43;2.63;;;14.40;99.90;;;;;;5014786;28;20046;-66
2022/08/23 04:50:35;;;;;;;2.70;2.50;;;14.30;99.90;;;;;;5014638;28;20072;-66
2022/08/23 04:53:01;;;;;;;2.75;2.38;;;14.40;99.90;;;;;;5013910;28;20088;-66
2022/08/23 04:55:27;;;;;;;3.60;2.70;;;14.40;99.90;;;;;;5013854;28;20045;-66
2022/08/23 04:57:53;;;;;;;3.38;2.78;;;14.40;99.90;;;;;;5012513;28;20068;-67
2022/08/23 05:00:19;;;;;;;2.90;2.60;;;14.50;99.90;;;;;;5013898;28;20103;-67
2022/08/23 05:02:45;;;;;;;2.90;2.60;;;14.50;99.90;;;;;;5013792;28;20056;-67
2022/08/23 05:05:11;;;;;;;2.50;2.25;;;14.50;99.90;;;;;;5014378;28;20038;-68
2022/08/23 05:07:38;;;;;;;2.15;1.88;;;14.60;99.90;;;;;;5013662;28;20137;-67
2022/08/23 05:10:09;;;;;;;2.83;2.05;;;14.60;99.90;;;;;;5014201;28;20387;-67
2022/08/23 05:12:35;;;;;;;2.17;1.85;;;14.60;99.90;;;;;;5014233;28;20046;-67
2022/08/23 05:15:01;;;;;;;2.10;1.80;;;14.60;99.90;;;;;;5014443;28;20392;-68
2022/08/23 05:17:27;;;;;;;2.35;2.00;;;14.60;99.90;;;;;;5013686;28;20053;-67
2022/08/23 05:19:53;;;;;;;2.65;2.45;;;14.60;99.90;;;;;;5013573;28;20050;-67
2022/08/23 05:22:18;;;;;;;2.67;2.38;;;14.60;99.90;;;;;;5013660;28;20057;-67
2022/08/23 05:24:44;;;;;;;3.67;3.00;;;14.60;99.90;;;;;;5013967;28;20042;-68
2022/08/23 05:27:10;;;;;;;3.70;3.25;;;14.70;99.90;;;;;;5013379;28;20081;-67
2022/08/23 05:29:36;;;;;;;3.92;3.58;;;14.80;99.90;;;;;;5013434;28;20050;-68
2022/08/23 05:32:02;;;;;;;3.90;3.50;;;14.90;99.90;;;;;;5013945;28;20085;-67
2022/08/23 05:34:27;;;;;;;5.88;5.10;;;15.00;99.90;;;;;;5013527;28;20081;-68
2022/08/23 05:36:54;;;;;;;6.40;4.13;;;15.10;99.90;;;;;;5013416;28;20167;-68
2022/08/23 05:39:21;;;;;;;5.20;4.53;;;15.20;99.90;;;;;;5014189;28;20108;-68
2022/08/23 05:41:46;;;;;;;5.70;4.88;;;15.30;99.90;;;;;;5013358;28;20128;-68
2022/08/23 05:44:13;;;;;;;4.90;4.40;;;15.50;99.90;;;;;;5013825;28;20125;-68
2022/08/23 05:46:39;;;;;;;6.57;4.85;;;15.60;99.90;;;;;;5012330;28;20058;-68
2022/08/23 05:49:05;;;;;;;5.38;4.20;;;15.70;99.90;;;;;;5013274;28;20053;-68
2022/08/23 05:51:32;;;;;;;5.05;4.55;;;15.80;99.90;;;;;;5013805;28;20054;-65
2022/08/23 05:54:02;;;;;;;4.88;4.43;;;15.90;99.90;;;;;;5014055;28;20125;-65
2022/08/23 05:56:30;;;;;;;5.05;4.55;;;16.00;99.90;;;;;;5013823;28;20477;-65
2022/08/23 05:59:00;;;;;;;6.80;4.82;;;16.00;99.90;;;;;;5012845;28;20490;-67
2022/08/23 06:01:27;;;;;;;6.40;5.80;;;16.20;99.90;;;;;;5012842;28;20558;-67
2022/08/23 06:03:53;;;;;;;7.88;6.07;;;16.30;99.90;;;;;;5013660;28;20052;-67
2022/08/23 06:06:19;;;;;;;7.07;6.30;;;16.40;99.90;;;;;;5016010;28;20041;-67
2022/08/23 06:08:46;;;;;;;7.28;6.25;;;16.50;99.90;;;;;;5017620;28;20458;-67
2022/08/23 06:11:22;;;;;;;7.55;6.80;;;16.60;99.90;;;;;;5016806;28;20483;-67
2022/08/23 06:13:52;;;;;;;7.78;6.97;;;16.80;99.90;;;;;;5017481;28;20049;-67
2022/08/23 06:16:21;;;;;;;8.82;7.07;;;16.90;99.90;;;;;;5017337;28;20124;-67
2022/08/23 06:18:47;;;;;;;8.55;7.65;;;17.00;99.90;;;;;;5015685;28;20054;-62
2022/08/23 06:21:14;;;;;;;8.27;7.47;;;17.10;99.90;;;;;;5016482;28;20495;-62
2022/08/23 06:23:41;;;;;;;8.10;7.30;;;17.30;99.90;;;;;;5017113;28;20067;-62
2022/08/23 06:26:14;;;;;;;8.48;7.60;;;17.40;99.90;;;;;;5017034;28;20497;-63
2022/08/23 06:28:42;;;;;;;8.60;7.78;;;17.50;99.90;;;;;;5016512;28;20109;-63
2022/08/23 06:31:08;;;;;;;8.88;8.07;;;17.60;99.90;;;;;;5015356;28;20053;-63
2022/08/23 06:33:35;;;;;;;8.48;7.55;;;17.60;99.90;;;;;;5016344;28;20088;-63
2022/08/23 06:36:16;;;;;;;9.95;7.93;;;17.80;99.90;;;;;;5016422;28;20053;-63
2022/08/23 06:38:43;;;;;;;8.50;7.63;;;17.90;99.90;;;;;;5016707;28;20133;-63
2022/08/23 06:41:11;;;;;;;9.55;8.27;;;18.00;99.90;;;;;;5016293;28;20045;-63
2022/08/23 06:43:38;;;;;;;9.75;8.32;;;18.20;99.90;;;;;;5016288;28;20128;-63
2022/08/23 06:46:07;;;;;;;9.05;7.55;;;18.30;99.90;;;;;;5016213;28;20050;-63
2022/08/23 06:48:33;;;;;;;9.05;8.15;;;18.40;99.90;;;;;;5016430;28;20398;-63
2022/08/23 06:50:58;;;;;;;9.52;8.48;;;18.50;99.90;;;;;;5016158;28;20061;-63
2022/08/23 06:53:24;;;;;;;9.15;8.23;;;18.60;99.90;;;;;;5016560;28;20128;-63
2022/08/23 06:55:50;;;;;;;9.00;8.20;;;18.80;99.90;;;;;;5016060;28;20104;-63
2022/08/23 06:58:15;;;;;;;8.57;7.72;;;18.90;99.90;;;;;;5014968;28;20046;-63
2022/08/23 07:00:41;;;;;;;8.77;7.55;;;19.00;99.90;;;;;;5016395;28;20077;-63
2022/08/23 07:03:07;;;;;;;8.45;7.57;;;19.10;99.90;;;;;;5016137;28;20053;-63
2022/08/23 07:05:32;;;;;;;7.68;6.95;;;19.20;99.90;;;;;;5015677;28;20045;-63
2022/08/23 07:07:58;;;;;;;9.13;7.38;;;19.30;99.90;;;;;;5015728;28;20088;-63
2022/08/23 07:10:24;;;;;;;9.70;6.82;;;19.40;99.90;;;;;;5014765;28;20050;-64
2022/08/23 07:12:49;;;;;;;8.48;6.95;;;19.60;99.90;;;;;;5015160;28;20041;-64
2022/08/23 07:15:15;;;;;;;8.80;7.30;;;19.70;99.90;;;;;;5014615;28;20041;-63
2022/08/23 07:17:41;;;;;;;7.85;7.03;;;19.80;99.90;;;;;;5015193;28;20049;-63
2022/08/23 07:20:07;;;;;;;8.27;6.50;;;19.90;99.90;;;;;;5015371;28;20108;-62
2022/08/23 07:22:32;;;;;;;7.10;6.40;;;20.10;99.90;;;;;;5015417;28;20054;-62
2022/08/23 07:24:58;;;;;;;6.13;5.53;;;20.10;99.90;;;;;;5015864;28;20045;-63
2022/08/23 07:27:24;;;;;;;7.10;5.32;;;20.30;99.90;;;;;;5014178;28;20046;-63
2022/08/23 07:29:49;;;;;;;6.22;5.10;;;20.40;99.90;;;;;;5015334;28;20046;-63
2022/08/23 07:32:15;;;;;;;5.10;4.60;;;20.50;99.90;;;;;;5015276;28;20042;-62
2022/08/23 07:34:41;;;;;;;6.88;4.53;;;20.70;99.90;;;;;;5014971;28;20038;-63
2022/08/23 07:37:07;;;;;;;4.55;4.10;;;20.80;99.90;;;;;;5015139;28;20052;-63
2022/08/23 07:39:32;;;;;;;5.32;4.70;;;20.90;99.90;;;;;;5015787;28;20044;-62
2022/08/23 07:42:03;;;;;;;6.35;5.00;;;20.90;99.90;;;;;;5015143;28;20390;-63
2022/08/23 07:44:29;;;;;;;6.65;4.20;;;21.10;99.90;;;;;;5014810;28;20100;-63
2022/08/23 07:46:55;;;;;;;5.28;4.75;;;21.10;99.90;;;;;;5015062;28;20052;-63
2022/08/23 07:49:21;;;;;;;4.30;3.90;;;21.20;99.90;;;;;;5015756;28;20042;-61
2022/08/23 07:51:49;;;;;;;5.03;4.43;;;21.30;99.90;;;;;;5015244;28;20045;-61
2022/08/23 07:54:16;;;;;;;5.15;4.32;;;21.40;99.90;;;;;;5015599;28;20072;-61
2022/08/23 07:56:43;;;;;;;4.88;4.32;;;21.50;99.90;;;;;;5014535;28;20526;-61
2022/08/23 07:59:10;;;;;;;5.80;4.45;;;21.60;99.90;;;;;;5014039;28;20050;-62
2022/08/23 08:01:36;;;;;;;4.75;4.35;;;21.70;99.90;;;;;;5014927;28;20107;-62
2022/08/23 08:04:04;;;;;;;5.38;4.18;;;21.80;99.90;;;;;;5014603;28;20046;-61
2022/08/23 08:06:34;;;;;;;5.95;4.10;;;21.90;99.90;;;;;;5013624;28;20479;-61
2022/08/23 08:09:00;;;;;;;3.97;3.38;;;22.00;99.90;;;;;;5014066;28;20053;-61
2022/08/23 08:11:28;;;;;;;6.75;4.10;;;22.10;99.90;;;;;;5014821;28;20095;-62
2022/08/23 08:13:55;;;;;;;4.82;4.03;;;22.20;99.90;;;;;;5014519;28;20398;-61
2022/08/23 08:16:25;;;;;;;4.97;3.30;;;22.30;99.90;;;;;;5014741;28;20487;-63
2022/08/23 08:18:52;;;;;;;4.03;3.50;;;22.40;99.90;;;;;;5014478;28;20483;-62
2022/08/23 08:21:18;;;;;;;3.83;3.10;;;22.60;99.90;;;;;;5013999;28;20517;-63
2022/08/23 08:23:44;;;;;;;4.40;3.15;;;22.60;99.90;;;;;;5014807;28;20061;-62
2022/08/23 08:26:10;;;;;;;4.90;3.30;;;22.70;99.90;;;;;;5014702;28;20046;-61
2022/08/23 08:28:37;;;;;;;5.30;3.13;;;22.80;99.90;;;;;;5014036;28;20042;-62
2022/08/23 08:31:04;;;;;;;3.95;2.97;;;22.90;99.90;;;;;;5014206;28;20137;-62
2022/08/23 08:33:31;;;;;;;4.25;2.70;;;23.00;99.90;;;;;;5014610;28;20127;-62
2022/08/23 08:35:57;;;;;;;3.53;2.90;;;23.10;99.90;;;;;;5014195;28;20049;-63
2022/08/23 08:38:23;;;;;;;3.47;3.10;;;23.10;99.90;;;;;;5014103;28;20046;-62
2022/08/23 08:40:59;;;;;;;3.67;2.92;;;23.30;99.90;;;;;;5014482;28;20041;-63
2022/08/23 08:43:37;;;;;;;4.53;2.95;;;23.30;99.90;;;;;;5013989;28;20046;-62
2022/08/23 08:46:10;;;;;;;4.72;3.03;;;23.40;99.90;;;;;;5013927;28;20046;-61
2022/08/23 08:48:48;;;;;;;3.45;3.13;;;23.50;99.90;;;;;;5014223;28;20367;-62
2022/08/23 08:51:42;;;;;;;4.88;3.15;;;23.60;99.90;;;;;;5014207;28;20141;-63
2022/08/23 08:54:11;;;;;;;4.03;2.90;;;23.80;99.90;;;;;;5014327;28;20046;-63
2022/08/23 08:56:38;;;;;;;6.63;3.17;;;23.80;99.90;;;;;;5013702;28;20101;-62
2022/08/23 08:59:08;;;;;;;5.20;3.15;;;23.80;99.90;;;;;;5013596;28;20142;-62
2022/08/23 09:01:36;;;;;;;3.97;2.95;;;23.70;99.90;;;;;;5013590;28;20046;-62
2022/08/23 09:04:04;;;;;;;3.80;3.03;;;23.70;99.90;;;;;;5013717;28;20390;-62
2022/08/23 09:06:48;;;;;;;3.78;2.92;;;23.60;99.90;;;;;;5012680;28;20060;-62
2022/08/23 09:09:49;;;;;;;5.05;2.90;;;23.50;99.90;;;;;;5013574;28;20491;-61
2022/08/23 09:12:41;;;;;;;6.18;3.03;;;23.40;99.90;;;;;;4933640;29;20058;-62
2022/08/23 09:15:27;;;;;;;3.53;2.75;;;23.40;99.90;;;;;;5011354;28;20483;-63
2022/08/23 09:18:01;;;;;;;;;;;23.30;99.90;;;;;;5014348;28;20364;-62
2022/08/23 09:20:28;;;;;;;3.88;2.72;;;23.40;99.90;;;;;;5012898;28;19968;-62
2022/08/23 09:23:14;;;;;;;3.78;2.58;;;23.60;99.90;;;;;;5013818;28;20065;-62
2022/08/23 09:25:40;;;;;;;2.97;2.67;;;23.80;99.90;;;;;;5013370;28;20081;-62
2022/08/23 09:28:05;;;;;;;5.18;2.85;;;24.00;99.90;;;;;;5013754;28;20096;-63
2022/08/23 09:31:04;;;;;;;4.15;2.45;;;24.20;99.90;;;;;;5011980;28;20077;-62
2022/08/23 09:33:47;;;;;;;3.85;2.75;;;24.40;99.90;;;;;;4970620;28;20064;-62
2022/08/23 09:36:27;;;;;;;4.47;2.50;;;24.60;99.90;;;;;;5013136;28;20490;-63
2022/08/23 09:38:58;;;;;;;4.28;2.38;;;24.70;99.90;;;;;;5014207;28;20129;-62
2022/08/23 09:41:27;;;;;;;3.97;2.03;;;24.80;99.90;;;;;;5017304;28;20072;-63
2022/08/23 09:43:54;;;;;;;4.63;2.40;;;24.90;99.90;;;;;;5017696;28;20075;-63
2022/08/23 09:46:27;;;;;;;3.75;2.10;;;25.00;99.90;;;;;;5017952;28;20049;-62
2022/08/23 09:48:54;;;;;;;4.82;2.50;;;25.10;99.90;;;;;;5017930;28;20046;-62
2022/08/23 09:51:34;;;;;;;2.88;2.20;;;25.20;99.90;;;;;;5016831;28;20446;-62
2022/08/23 09:54:17;;;;;;;4.97;1.92;;;25.20;99.90;;;;;;5017595;28;20042;-62
2022/08/23 09:56:54;;;;;;;3.67;2.13;;;25.30;99.90;;;;;;5017586;28;20450;-63
2022/08/23 09:59:26;;;;;;;4.00;2.22;;;25.40;99.90;;;;;;5016817;28;20060;-63
2022/08/23 10:01:55;;;;;;;4.13;2.15;;;25.40;99.90;;;;;;5016990;28;20057;-63
2022/08/23 10:04:23;;;;;;;3.70;2.47;;;25.40;99.90;;;;;;5017334;28;20092;-64
2022/08/23 10:06:49;;;;;;;2.65;2.25;;;25.50;99.90;;;;;;5017581;28;20046;-63
2022/08/23 10:09:31;;;;;;;4.10;2.45;;;25.50;99.90;;;;;;5017631;28;20117;-63
2022/08/23 10:11:59;;;;;;;3.28;2.45;;;25.60;99.90;;;;;;5016827;28;20057;-63
2022/08/23 10:14:27;;;;;;;3.35;2.00;;;25.70;99.90;;;;;;5015392;28;20038;-63
2022/08/23 10:17:21;;;;;;;4.93;2.20;;;25.80;99.90;;;;;;5017201;28;20042;-63
2022/08/23 10:19:56;;;;;;;4.30;2.20;;;25.70;99.90;;;;;;5016615;28;20057;-63
2022/08/23 10:22:27;;;;;;;2.75;1.90;;;26.00;99.90;;;;;;5015686;28;20495;-63
2022/08/23 10:25:26;;;;;;;5.30;2.10;;;26.00;99.90;;;;;;5016759;28;20096;-63
2022/08/23 10:30:58;;;;;;;3.15;1.85;;;26.20;99.90;;;;;;5016420;28;20538;-63
2022/08/23 10:33:53;;;;;;;4.05;2.08;;;26.20;99.90;;;;;;5016427;28;20093;-62
2022/08/23 10:36:37;;;;;;;3.00;1.90;;;26.30;99.90;;;;;;5016219;28;20054;-63
2022/08/23 10:39:13;;;;;;;3.75;1.80;;;26.30;99.90;;;;;;5016800;28;20379;-62
2022/08/23 10:42:14;;;;;;;3.25;1.67;;;26.40;99.90;;;;;;5017026;28;20046;-63
2022/08/23 10:44:54;;;;;;;3.00;1.80;;;26.40;99.90;;;;;;5015987;28;20541;-62
2022/08/23 10:47:26;;;;;;;3.17;1.83;;;26.40;99.90;;;;;;5016354;28;20501;-63
2022/08/23 10:49:54;;;;;;;3.55;2.20;;;26.40;99.90;;;;;;5016418;28;20053;-62
2022/08/23 10:52:35;;;;;;;4.13;1.98;;;26.40;99.90;;;;;;5015751;28;20137;-63
2022/08/23 10:55:16;;;;;;;3.92;1.85;;;26.50;99.90;;;;;;5016052;28;20042;-62
2022/08/23 10:57:45;;;;;;;3.42;1.90;;;26.50;99.90;;;;;;5016139;28;20376;-62
2022/08/23 11:00:24;;;;;;;3.10;1.50;;;26.40;99.90;;;;;;5015808;28;20088;-62
2022/08/23 11:03:03;;;;;;;2.83;1.70;;;26.50;99.90;;;;;;5016376;28;20048;-62
2022/08/23 11:05:34;;;;;;;3.38;1.92;;;26.60;99.90;;;;;;5016465;28;20398;-61
2022/08/23 11:08:11;;;;;;;3.85;1.85;;;26.60;99.90;;;;;;5015753;28;20053;-61
2022/08/23 11:10:47;;;;;;;2.92;1.85;;;26.70;99.90;;;;;;5015736;28;20045;-62
2022/08/23 11:13:16;;;;;;;3.33;1.90;;;26.80;99.90;;;;;;5015368;28;20053;-62
2022/08/23 11:15:43;;;;;;;2.50;1.75;;;26.80;99.90;;;;;;5015568;28;20038;-62
2022/08/23 11:18:30;;;;;;;3.30;1.60;;;26.90;99.90;;;;;;5015563;28;20060;-62
2022/08/23 11:21:07;;;;;;;4.03;2.03;;;26.90;99.90;;;;;;5015549;28;20053;-63
2022/08/23 11:23:42;;;;;;;4.22;1.95;;;27.00;99.90;;;;;;5015493;28;20065;-63
2022/08/23 11:26:32;;;;;;;3.38;1.70;;;26.90;99.90;;;;;;5015293;28;20080;-63
2022/08/23 11:29:10;;;;;;;3.55;1.80;;;27.00;99.90;;;;;;5013953;28;20130;-62
2022/08/23 11:31:47;;;;;;;2.70;1.90;;;27.00;99.90;;;;;;5015298;28;20088;-62
2022/08/23 11:34:31;;;;;;;5.25;1.90;;;27.10;99.90;;;;;;5015247;28;20072;-62
2022/08/23 11:37:18;;;;;;;4.75;2.13;;;27.10;99.90;;;;;;5015680;28;20372;-62
2022/08/23 11:39:59;;;;;;;3.20;1.70;;;27.20;99.90;;;;;;5015090;28;20083;-62
2022/08/23 11:42:37;;;;;;;3.22;2.05;;;27.20;99.90;;;;;;5014090;28;20458;-64
2022/08/23 11:45:19;;;;;;;3.20;1.83;;;27.20;99.90;;;;;;5013517;28;20475;-62
2022/08/23 11:47:49;;;;;;;2.88;1.70;;;27.10;99.90;;;;;;5015026;28;20060;-62
2022/08/23 11:50:37;;;;;;;3.15;1.83;;;27.10;99.90;;;;;;5014774;28;20041;-62
2022/08/23 11:53:18;;;;;;;3.85;1.63;;;27.10;99.90;;;;;;5015298;28;20103;-63
2022/08/23 11:55:59;;;;;;;3.17;1.77;;;27.20;99.90;;;;;;5014483;28;20045;-62
2022/08/23 11:58:50;;;;;;;3.05;1.80;;;27.30;99.90;;;;;;5014007;28;20058;-63
2022/08/23 12:01:26;;;;;;;3.10;2.00;;;27.30;99.90;;;;;;5014865;28;20053;-63
2022/08/23 12:03:54;;;;;;;2.97;1.60;;;27.40;99.90;;;;;;5014987;28;20057;-62
2022/08/23 12:06:41;;;;;;;2.85;1.60;;;27.40;99.90;;;;;;5015016;28;20394;-63
2022/08/23 12:09:12;;;;;;;4.93;1.73;;;27.50;99.90;;;;;;5014684;28;20053;-62
2022/08/23 12:11:56;;;;;;;2.70;1.75;;;27.50;99.90;;;;;;5014501;28;20058;-62
2022/08/23 12:14:30;;;;;;;2.30;1.67;;;27.50;99.90;;;;;;5014757;28;20128;-62
2022/08/23 12:17:11;;;;;;;2.40;1.55;;;27.50;99.90;;;;;;5014496;28;20049;-62
2022/08/23 12:19:41;;;;;;;2.80;1.67;;;27.40;99.90;;;;;;5014364;28;20100;-64
2022/08/23 12:22:12;;;;;;;2.67;1.60;;;27.50;99.90;;;;;;5014262;28;20116;-62
2022/08/23 12:24:50;;;;;;;2.90;1.80;;;27.50;99.90;;;;;;5014796;28;20092;-62
2022/08/23 12:27:22;;;;;;;2.88;1.70;;;27.60;99.90;;;;;;5014330;28;20062;-63
2022/08/23 12:29:58;;;;;;;3.30;1.75;;;27.60;99.90;;;;;;5014893;28;20046;-63
2022/08/23 12:32:56;;;;;;;3.35;1.80;;;27.70;99.90;;;;;;5014749;28;20050;-63
2022/08/23 12:35:30;;;;;;;2.60;1.80;;;27.70;99.90;;;;;;5014165;28;20042;-62
2022/08/23 12:38:14;;;;;;;2.72;1.75;;;27.70;99.90;;;;;;5014217;28;20046;-62
2022/08/23 12:40:46;;;;;;;2.75;1.77;;;27.80;99.90;;;;;;5014113;28;20115;-62
2022/08/23 12:43:12;;;;;;;2.55;1.40;;;27.90;99.90;;;;;;5013555;28;20045;-63
2022/08/23 12:45:48;;;;;;;3.47;1.77;;;28.00;99.90;;;;;;5012845;28;20394;-63
2022/08/23 12:48:16;;;;;;;2.55;1.70;;;27.90;99.90;;;;;;5014457;28;20061;-63
2022/08/23 12:50:45;;;;;;;3.28;1.60;;;27.90;99.90;;;;;;5013924;28;20046;-63
2022/08/23 12:53:34;;;;;;;2.97;1.70;;;27.80;99.90;;;;;;5013937;28;20041;-63
2022/08/23 12:56:07;;;;;;;3.38;1.65;;;27.90;99.90;;;;;;5014415;28;20109;-62
2022/08/23 12:58:37;;;;;;;3.70;1.85;;;27.90;99.90;;;;;;5014255;28;20371;-63
2022/08/23 13:01:16;;;;;;;2.95;1.50;;;28.00;99.90;;;;;;5013388;28;20046;-62
2022/08/23 13:03:45;;;;;;;4.28;1.83;;;28.00;99.90;;;;;;5013774;28;20092;-62
2022/08/23 13:06:22;;;;;;;3.05;1.98;;;28.10;99.90;;;;;;5014138;28;20128;-63
2022/08/23 13:08:55;;;;;;;4.15;1.80;;;28.20;99.90;;;;;;5014244;28;20046;-62
2022/08/23 13:11:24;;;;;;;2.83;1.80;;;28.10;99.90;;;;;;5013578;28;20396;-62
2022/08/23 13:13:50;;;;;;;3.38;1.90;;;28.10;99.90;;;;;;5012700;28;20129;-62
2022/08/23 13:16:45;;;;;;;3.83;2.00;;;28.00;99.90;;;;;;5014323;28;20124;-63
2022/08/23 13:19:29;;;;;;;2.90;1.98;;;28.10;99.90;;;;;;5012557;28;20459;-63
2022/08/23 13:22:24;;;;;;;3.10;1.83;;;28.10;99.90;;;;;;5012069;28;20062;-63